地図

経路データ

SID SEASON NUMBER BASIN SUBBASIN NAME ISO_TIME NATURE LAT LON WMO_WIND WMO_PRES WMO_AGENCY TRACK_TYPE DIST2LAND LANDFALL IFLAG USA_AGENCY USA_ATCF_ID USA_LAT USA_LON USA_RECORD USA_STATUS USA_WIND USA_PRES USA_SSHS USA_R34_NE USA_R34_SE USA_R34_SW USA_R34_NW USA_R50_NE USA_R50_SE USA_R50_SW USA_R50_NW USA_R64_NE USA_R64_SE USA_R64_SW USA_R64_NW USA_POCI USA_ROCI USA_RMW USA_EYE TOKYO_LAT TOKYO_LON TOKYO_GRADE TOKYO_WIND TOKYO_PRES TOKYO_R50_DIR TOKYO_R50_LONG TOKYO_R50_SHORT TOKYO_R30_DIR TOKYO_R30_LONG TOKYO_R30_SHORT TOKYO_LAND CMA_LAT CMA_LON CMA_CAT CMA_WIND CMA_PRES HKO_LAT HKO_LON HKO_CAT HKO_WIND HKO_PRES NEWDELHI_LAT NEWDELHI_LON NEWDELHI_GRADE NEWDELHI_WIND NEWDELHI_PRES NEWDELHI_CI NEWDELHI_DP NEWDELHI_POCI REUNION_LAT REUNION_LON REUNION_TYPE REUNION_WIND REUNION_PRES REUNION_TNUM REUNION_CI REUNION_RMW REUNION_R34_NE REUNION_R34_SE REUNION_R34_SW REUNION_R34_NW REUNION_R50_NE REUNION_R50_SE REUNION_R50_SW REUNION_R50_NW REUNION_R64_NE REUNION_R64_SE REUNION_R64_SW REUNION_R64_NW BOM_LAT BOM_LON BOM_TYPE BOM_WIND BOM_PRES BOM_TNUM BOM_CI BOM_RMW BOM_R34_NE BOM_R34_SE BOM_R34_SW BOM_R34_NW BOM_R50_NE BOM_R50_SE BOM_R50_SW BOM_R50_NW BOM_R64_NE BOM_R64_SE BOM_R64_SW BOM_R64_NW BOM_ROCI BOM_POCI BOM_EYE BOM_POS_METHOD BOM_PRES_METHOD NADI_LAT NADI_LON NADI_CAT NADI_WIND NADI_PRES WELLINGTON_LAT WELLINGTON_LON WELLINGTON_WIND WELLINGTON_PRES DS824_LAT DS824_LON DS824_STAGE DS824_WIND DS824_PRES TD9636_LAT TD9636_LON TD9636_STAGE TD9636_WIND TD9636_PRES TD9635_LAT TD9635_LON TD9635_WIND TD9635_PRES TD9635_ROCI NEUMANN_LAT NEUMANN_LON NEUMANN_CLASS NEUMANN_WIND NEUMANN_PRES MLC_LAT MLC_LON MLC_CLASS MLC_WIND MLC_PRES USA_GUST BOM_GUST BOM_GUST_PER REUNION_GUST REUNION_GUST_PER USA_SEAHGT USA_SEARAD_NE USA_SEARAD_SE USA_SEARAD_SW USA_SEARAD_NW STORM_SPEED STORM_DIR
1937032S11064 1937 4 SI MM NOT_NAMED 1937-02-01 06:00:00 NR -11.1000 64.0000 reunion main 1212 1199 _____O________ -1 -11.1000 64.0000 99 9.90000 5 153
1937032S11064 1937 4 SI MM NOT_NAMED 1937-02-01 09:00:00 NR -11.3136 64.1157 main 1199 1187 _____P________ -1 -11.3136 64.1157 99 5 152
1937032S11064 1937 4 SI MM NOT_NAMED 1937-02-01 12:00:00 NR -11.5283 64.2289 main 1187 1175 _____P________ -1 -11.5283 64.2289 99 5 153
1937032S11064 1937 4 SI MM NOT_NAMED 1937-02-01 15:00:00 NR -11.7452 64.3367 main 1175 1154 _____P________ -1 -11.7452 64.3367 99 5 155
1937032S11064 1937 4 SI MM NOT_NAMED 1937-02-01 18:00:00 NR -11.9652 64.4366 main 1154 1143 _____P________ -1 -11.9652 64.4366 99 5 157
1937032S11064 1937 4 SI MM NOT_NAMED 1937-02-01 21:00:00 NR -12.1896 64.5256 main 1143 1133 _____P________ -1 -12.1896 64.5256 99 5 160
1937032S11064 1937 4 SI MM NOT_NAMED 1937-02-02 00:00:00 NR -12.4195 64.6010 main 1133 1116 _____P________ -1 -12.4195 64.6010 99 5 164
1937032S11064 1937 4 SI MM NOT_NAMED 1937-02-02 03:00:00 NR -12.6559 64.6600 main 1114 1097 _____P________ -1 -12.6559 64.6600 99 5 169
1937032S11064 1937 4 SI MM NOT_NAMED 1937-02-02 06:00:00 NR -12.9000 64.7000 reunion main 1097 1081 _____O________ -1 -12.9000 64.7000 99 9.90000 5 173
1937032S11064 1937 4 SI MM NOT_NAMED 1937-02-02 09:00:00 NR -13.1525 64.7190 main 1073 1056 _____P________ -1 -13.1525 64.7190 99 5 0
1937032S11064 1937 4 SI MM NOT_NAMED 1937-02-02 12:00:00 NR -13.4131 64.7192 main 1056 1033 _____P________ -1 -13.4131 64.7192 99 5 0
1937032S11064 1937 4 SI MM NOT_NAMED 1937-02-02 15:00:00 NR -13.6808 64.7036 main 1033 1017 _____P________ -1 -13.6808 64.7036 99 5 185
1937032S11064 1937 4 SI MM NOT_NAMED 1937-02-02 18:00:00 NR -13.9550 64.6755 main 1009 986 _____P________ -1 -13.9550 64.6755 99 6 187
1937032S11064 1937 4 SI MM NOT_NAMED 1937-02-02 21:00:00 NR -14.2348 64.6379 main 986 963 _____P________ -1 -14.2348 64.6379 99 6 187
1937032S11064 1937 4 SI MM NOT_NAMED 1937-02-03 00:00:00 NR -14.5194 64.5941 main 963 933 _____P________ -1 -14.5194 64.5941 99 6 189
1937032S11064 1937 4 SI MM NOT_NAMED 1937-02-03 03:00:00 NR -14.8081 64.5470 main 933 912 _____P________ -1 -14.8081 64.5470 99 6 188
1937032S11064 1937 4 SI MM NOT_NAMED 1937-02-03 06:00:00 NR -15.1000 64.5000 reunion main 912 891 _____O________ -1 -15.1000 64.5000 99 9.90000 6 186
1937032S11064 1937 4 SI MM NOT_NAMED 1937-02-03 09:00:00 NR -15.3926 64.4746 main 891 862 _____P________ -1 -15.3926 64.4746 99 6 185
1937032S11064 1937 4 SI MM NOT_NAMED 1937-02-03 12:00:00 NR -15.6896 64.4481 main 862 843 _____P________ -1 -15.6896 64.4481 99 6 185
1937032S11064 1937 4 SI MM NOT_NAMED 1937-02-03 15:00:00 NR -15.9900 64.4192 main 843 825 _____P________ -1 -15.9900 64.4192 99 6 185
1937032S11064 1937 4 SI MM NOT_NAMED 1937-02-03 18:00:00 NR -16.2924 64.3869 main 825 808 _____P________ -1 -16.2924 64.3869 99 6 186
1937032S11064 1937 4 SI MM NOT_NAMED 1937-02-03 21:00:00 NR -16.5958 64.3500 main 799 782 _____P________ -1 -16.5958 64.3500 99 6 187
1937032S11064 1937 4 SI MM NOT_NAMED 1937-02-04 00:00:00 NR -16.8990 64.3073 main 782 767 _____P________ -1 -16.8990 64.3073 99 6 188
1937032S11064 1937 4 SI MM NOT_NAMED 1937-02-04 03:00:00 NR -17.2008 64.2577 main 767 742 _____P________ -1 -17.2008 64.2577 99 6 190
1937032S11064 1937 4 SI MM NOT_NAMED 1937-02-04 06:00:00 NR -17.5000 64.2000 reunion main 742 728 _____O________ -1 -17.5000 64.2000 99 9.90000 6 187
1937032S11064 1937 4 SI MM NOT_NAMED 1937-02-04 09:00:00 NR -17.7953 64.1815 main 728 715 _____P________ -1 -17.7953 64.1815 99 6 185
1937032S11064 1937 4 SI MM NOT_NAMED 1937-02-04 12:00:00 NR -18.0889 64.1609 main 715 694 _____P________ -1 -18.0889 64.1609 99 6 186
1937032S11064 1937 4 SI MM NOT_NAMED 1937-02-04 15:00:00 NR -18.3805 64.1294 main 694 684 _____P________ -1 -18.3805 64.1294 99 6 188
1937032S11064 1937 4 SI MM NOT_NAMED 1937-02-04 18:00:00 NR -18.6699 64.0783 main 684 668 _____P________ -1 -18.6699 64.0783 99 6 192
1937032S11064 1937 4 SI MM NOT_NAMED 1937-02-04 21:00:00 NR -18.9568 63.9987 main 665 650 _____P________ -1 -18.9568 63.9987 99 6 198
1937032S11064 1937 4 SI MM NOT_NAMED 1937-02-05 00:00:00 NR -19.2410 63.8818 main 650 623 _____P________ -1 -19.2410 63.8818 99 6 205
1937032S11064 1937 4 SI MM NOT_NAMED 1937-02-05 03:00:00 NR -19.5222 63.7186 main 623 597 _____P________ -1 -19.5222 63.7186 99 7 213
1937032S11064 1937 4 SI MM NOT_NAMED 1937-02-05 06:00:00 NR -19.8000 63.5000 reunion main 597 563 _____O________ -1 -19.8000 63.5000 99 9.90000 8 222
1937032S11064 1937 4 SI MM NOT_NAMED 1937-02-05 09:00:00 NR -20.0813 63.1755 main 563 521 _____P________ -1 -20.0813 63.1755 99 9 230
1937032S11064 1937 4 SI MM NOT_NAMED 1937-02-05 12:00:00 NR -20.3592 62.7905 main 521 480 _____P________ -1 -20.3592 62.7905 99 9 234
1937032S11064 1937 4 SI MM NOT_NAMED 1937-02-05 15:00:00 NR -20.6326 62.3607 main 480 431 _____P________ -1 -20.6326 62.3607 99 10 237
1937032S11064 1937 4 SI MM NOT_NAMED 1937-02-05 18:00:00 NR -20.9004 61.9019 main 431 395 _____P________ -1 -20.9004 61.9019 99 10 239
1937032S11064 1937 4 SI MM NOT_NAMED 1937-02-05 21:00:00 NR -21.1617 61.4303 main 387 354 _____P________ -1 -21.1617 61.4303 99 10 240
1937032S11064 1937 4 SI MM NOT_NAMED 1937-02-06 00:00:00 NR -21.4157 60.9619 main 354 315 _____P________ -1 -21.4157 60.9619 99 10 240
1937032S11064 1937 4 SI MM NOT_NAMED 1937-02-06 03:00:00 NR -21.6619 60.5130 main 319 293 _____P________ -1 -21.6619 60.5130 99 9 239
1937032S11064 1937 4 SI MM NOT_NAMED 1937-02-06 06:00:00 NR -21.9000 60.1000 reunion main 293 281 _____O________ -1 -21.9000 60.1000 99 9.90000 8 236
1937032S11064 1937 4 SI MM NOT_NAMED 1937-02-06 09:00:00 NR -22.1279 59.7720 main 281 273 _____P________ -1 -22.1279 59.7720 99 7 232
1937032S11064 1937 4 SI MM NOT_NAMED 1937-02-06 12:00:00 NR -22.3476 59.4726 main 274 269 _____P________ -1 -22.3476 59.4726 99 7 231
1937032S11064 1937 4 SI MM NOT_NAMED 1937-02-06 15:00:00 NR -22.5610 59.1987 main 281 275 _____P________ -1 -22.5610 59.1987 99 6 229
1937032S11064 1937 4 SI MM NOT_NAMED 1937-02-06 18:00:00 NR -22.7700 58.9471 main 285 285 _____P________ -1 -22.7700 58.9471 99 6 227
1937032S11064 1937 4 SI MM NOT_NAMED 1937-02-06 21:00:00 NR -22.9766 58.7146 main 297 294 _____P________ -1 -22.9766 58.7146 99 6 225
1937032S11064 1937 4 SI MM NOT_NAMED 1937-02-07 00:00:00 NR -23.1826 58.4981 main 312 310 _____P________ -1 -23.1826 58.4981 99 6 223
1937032S11064 1937 4 SI MM NOT_NAMED 1937-02-07 03:00:00 NR -23.3898 58.2943 main 330 328 _____P________ -1 -23.3898 58.2943 99 6 221
1937032S11064 1937 4 SI MM NOT_NAMED 1937-02-07 06:00:00 NR -23.6000 58.1000 reunion main 349 349 _____O________ -1 -23.6000 58.1000 99 9.90000 6 221
1937032S11064 1937 4 SI MM NOT_NAMED 1937-02-07 09:00:00 NR -23.8200 57.8871 main 352 352 _____P________ -1 -23.8200 57.8871 99 6 221
1937032S11064 1937 4 SI MM NOT_NAMED 1937-02-07 12:00:00 NR -24.0423 57.6858 main 359 359 _____P________ -1 -24.0423 57.6858 99 6 219
1937032S11064 1937 4 SI MM NOT_NAMED 1937-02-07 15:00:00 NR -24.2664 57.4958 main 377 372 _____P________ -1 -24.2664 57.4958 99 6 217
1937032S11064 1937 4 SI MM NOT_NAMED 1937-02-07 18:00:00 NR -24.4919 57.3167 main 387 387 _____P________ -1 -24.4919 57.3167 99 6 215
1937032S11064 1937 4 SI MM NOT_NAMED 1937-02-07 21:00:00 NR -24.7184 57.1479 main 399 399 _____P________ -1 -24.7184 57.1479 99 5 213
1937032S11064 1937 4 SI MM NOT_NAMED 1937-02-08 00:00:00 NR -24.9456 56.9891 main 416 416 _____P________ -1 -24.9456 56.9891 99 5 212
1937032S11064 1937 4 SI MM NOT_NAMED 1937-02-08 03:00:00 NR -25.1729 56.8400 main 442 442 _____P________ -1 -25.1729 56.8400 99 5 210
1937032S11064 1937 4 SI MM NOT_NAMED 1937-02-08 06:00:00 NR -25.4000 56.7000 reunion main 460 458 _____O________ -1 -25.4000 56.7000 99 9.90000 5 226
1937032S11064 1937 4 SI MM NOT_NAMED 1937-02-08 09:00:00 NR -25.5152 56.4537 main 467 465 _____P________ -1 -25.5152 56.4537 99 5 244
1937032S11064 1937 4 SI MM NOT_NAMED 1937-02-08 12:00:00 NR -25.6167 56.2049 main 473 472 _____P________ -1 -25.6167 56.2049 99 5 244
1937032S11064 1937 4 SI MM NOT_NAMED 1937-02-08 15:00:00 NR -25.7269 55.9739 main 482 481 _____P________ -1 -25.7269 55.9739 99 5 237
1937032S11064 1937 4 SI MM NOT_NAMED 1937-02-08 18:00:00 NR -25.8684 55.7811 main 503 503 _____P________ -1 -25.8684 55.7811 99 4 221
1937032S11064 1937 4 SI MM NOT_NAMED 1937-02-08 21:00:00 NR -26.0637 55.6466 main 525 525 _____P________ -1 -26.0637 55.6466 99 5 200
1937032S11064 1937 4 SI MM NOT_NAMED 1937-02-09 00:00:00 NR -26.3356 55.5909 main 547 547 _____P________ -1 -26.3356 55.5909 99 6 0
1937032S11064 1937 4 SI MM NOT_NAMED 1937-02-09 03:00:00 NR -26.7067 55.6347 main 592 592 _____P________ -1 -26.7067 55.6347 99 9 168
1937032S11064 1937 4 SI MM NOT_NAMED 1937-02-09 06:00:00 NR -27.2000 55.8000 reunion main 648 648 _____O________ -1 -27.2000 55.8000 99 9.90000 14 158
1937032S11064 1937 4 SI MM NOT_NAMED 1937-02-09 09:00:00 NR -27.9855 56.2031 main 739 739 _____P________ -1 -27.9855 56.2031 99 19 154
1937032S11064 1937 4 SI MM NOT_NAMED 1937-02-09 12:00:00 NR -28.9057 56.7457 main 845 845 _____P________ -1 -28.9057 56.7457 99 22 152
1937032S11064 1937 4 SI MM NOT_NAMED 1937-02-09 15:00:00 NR -29.9147 57.3980 main 966 966 _____P________ -1 -29.9147 57.3980 99 24 150
1937032S11064 1937 4 SI MM NOT_NAMED 1937-02-09 18:00:00 NR -30.9665 58.1283 main 1100 1100 _____P________ -1 -30.9665 58.1283 99 25 148
1937032S11064 1937 4 SI MM NOT_NAMED 1937-02-09 21:00:00 NR -32.0153 58.9022 main 1228 1228 _____P________ -1 -32.0153 58.9022 99 24 147
1937032S11064 1937 4 SI MM NOT_NAMED 1937-02-10 00:00:00 NR -33.0161 59.6828 main 1356 1356 _____P________ -1 -33.0161 59.6828 99 23 146
1937032S11064 1937 4 SI MM NOT_NAMED 1937-02-10 03:00:00 NR -33.9250 60.4297 main 1472 1472 _____P________ -1 -33.9250 60.4297 99 21 145
1937032S11064 1937 4 SI MM NOT_NAMED 1937-02-10 06:00:00 NR -34.7000 61.1000 reunion main 1578 1578 _____O________ -1 -34.7000 61.1000 99 9.90000 15 144
1937032S11064 1937 4 SI MM NOT_NAMED 1937-02-10 09:00:00 NR -35.1764 61.5164 main 1628 1588 _____P________ -1 -35.1764 61.5164 99 10 143
1937032S11064 1937 4 SI MM NOT_NAMED 1937-02-10 12:00:00 NR -35.5353 61.8575 main 1585 1547 _____P________ -1 -35.5353 61.8575 99 8 141
1937032S11064 1937 4 SI MM NOT_NAMED 1937-02-10 15:00:00 NR -35.8016 62.1399 main 1547 1518 _____P________ -1 -35.8016 62.1399 99 6 138
1937032S11064 1937 4 SI MM NOT_NAMED 1937-02-10 18:00:00 NR -36.0002 62.3809 main 1518 1502 _____P________ -1 -36.0002 62.3809 99 5 134
1937032S11064 1937 4 SI MM NOT_NAMED 1937-02-10 21:00:00 NR -36.1552 62.5987 main 1491 1475 _____P________ -1 -36.1552 62.5987 99 5 130
1937032S11064 1937 4 SI MM NOT_NAMED 1937-02-11 00:00:00 NR -36.2909 62.8118 main 1475 1459 _____P________ -1 -36.2909 62.8118 99 4 128
1937032S11064 1937 4 SI MM NOT_NAMED 1937-02-11 03:00:00 NR -36.4313 63.0392 main 1459 1430 _____P________ -1 -36.4313 63.0392 99 5 128
1937032S11064 1937 4 SI MM NOT_NAMED 1937-02-11 06:00:00 NR -36.6000 63.3000 reunion main 1430 1388 _____O________ -1 -36.6000 63.3000 99 9.90000 7 133
1937032S11064 1937 4 SI MM NOT_NAMED 1937-02-11 09:00:00 NR -36.9353 63.7222 main 1388 1333 _____P________ -1 -36.9353 63.7222 99 10 135
1937032S11064 1937 4 SI MM NOT_NAMED 1937-02-11 12:00:00 NR -37.2901 64.1786 main 1333 1292 _____P________ -1 -37.2901 64.1786 99 10 134
1937032S11064 1937 4 SI MM NOT_NAMED 1937-02-11 15:00:00 NR -37.6530 64.6550 main 1279 1238 _____P________ -1 -37.6530 64.6550 99 10 134
1937032S11064 1937 4 SI MM NOT_NAMED 1937-02-11 18:00:00 NR -38.0127 65.1367 main 1238 1196 _____P________ -1 -38.0127 65.1367 99 10 133
1937032S11064 1937 4 SI MM NOT_NAMED 1937-02-11 21:00:00 NR -38.3579 65.6082 main 1185 1146 _____P________ -1 -38.3579 65.6082 99 10 133
1937032S11064 1937 4 SI MM NOT_NAMED 1937-02-12 00:00:00 NR -38.6780 66.0537 main 1144 1118 _____P________ -1 -38.6780 66.0537 99 9 132
1937032S11064 1937 4 SI MM NOT_NAMED 1937-02-12 03:00:00 NR -38.9621 66.4566 main 1105 1080 _____P________ -1 -38.9621 66.4566 99 8 132
1937032S11064 1937 4 SI MM NOT_NAMED 1937-02-12 06:00:00 NR -39.2000 66.8000 reunion main 1080 1054 _____O________ -1 -39.2000 66.8000 99 9.90000 6 132
1937032S11064 1937 4 SI MM NOT_NAMED 1937-02-12 09:00:00 NR -39.3843 67.0712 main 1054 1041 _____P________ -1 -39.3843 67.0712 99 5 131
1937032S11064 1937 4 SI MM NOT_NAMED 1937-02-12 12:00:00 NR -39.5196 67.2747 main 1041 1029 _____P________ -1 -39.5196 67.2747 99 4 131
1937032S11064 1937 4 SI MM NOT_NAMED 1937-02-12 15:00:00 NR -39.6130 67.4194 main 1029 1017 _____P________ -1 -39.6130 67.4194 99 2 129
1937032S11064 1937 4 SI MM NOT_NAMED 1937-02-12 18:00:00 NR -39.6718 67.5150 main 1017 1016 _____P________ -1 -39.6718 67.5150 99 1 127
1937032S11064 1937 4 SI MM NOT_NAMED 1937-02-12 21:00:00 NR -39.7030 67.5709 main 1016 1016 _____P________ -1 -39.7030 67.5709 99 1 122
1937032S11064 1937 4 SI MM NOT_NAMED 1937-02-13 00:00:00 NR -39.7135 67.5972 main 1016 1016 _____P________ -1 -39.7135 67.5972 99 0 0
1937032S11064 1937 4 SI MM NOT_NAMED 1937-02-13 03:00:00 NR -39.7102 67.6035 main 1016 1016 _____P________ -1 -39.7102 67.6035 99 0 0
1937032S11064 1937 4 SI MM NOT_NAMED 1937-02-13 06:00:00 NR -39.7000 67.6000 reunion main 1016 _____O________ -1 -39.7000 67.6000 99 9.90000 0 0

IBTrACS Databaseについて

本データベースは、米国NOAAが公開する1842年以降の世界の熱帯低気圧のベストトラックデータアーカイブInternational Best Track Archive for Climate Stewardship (IBTrACS)を、ウェブで閲覧しやすい形式に変換したものです。

最終更新日:2021-12-01